Flight Track Log - Related Links

Times and Time Zones

All times are in EDT time to prevent confusion due to time zone crossing. See the EJM53 flight status page for this flight to view local times or setup timezone preferences in your user account.

Time Position Orientation Groundspeed Altitude Reporting Facility
EDT Latitude Longitude Course Direction KTS MPH feet Rate Location/Type
Sun 09:29:29 AM 42.4667 -71.3167 316° Northwest 207 238 1,000  Level KA90
Sun 09:30:41 AM 42.5167 -71.3833 316° Northwest 223 257 3,400 2,802 Climbing KA90
Sun 09:32:31 AM 42.6369 -71.3422 14° North 265 305 9,500 3,141 Climbing Boston Center
Sun 09:33:31 AM 42.7053 -71.3156 16° North 270 311 12,300 2,600 Climbing Boston Center
Sun 09:34:31 AM 42.7519 -71.3967 308° West 227 261 14,700 2,550 Climbing Boston Center
Sun 09:35:31 AM 42.7633 -71.4956 279° West 251 289 17,400 2,400 Climbing Boston Center
Sun 09:36:31 AM 42.7767 -71.6083 279° West 292 336 19,500 2,050 Climbing Boston Center
Sun 09:37:31 AM 42.7900 -71.7272 279° West 312 359 21,500 1,900 Climbing Boston Center
Sun 09:38:31 AM 42.8033 -71.8514 278° West 324 373 23,300 1,800 Climbing Boston Center
Sun 09:39:31 AM 42.8164 -71.9986 277° West 347 399 25,100 1,650 Climbing Boston Center
Sun 09:40:31 AM 42.8294 -72.1314 278° West 353 406 26,600 1,500 Climbing Boston Center
Sun 09:41:31 AM 42.8442 -72.2672 278° West 359 413 28,100 1,350 Climbing Boston Center
Sun 09:42:31 AM 42.8631 -72.3947 281° West 369 425 29,300 1,350 Climbing Boston Center
Sun 09:43:31 AM 42.8733 -72.5336 276° West 374 430 30,800 1,450 Climbing Boston Center
Sun 09:44:31 AM 42.8794 -72.6667 274° West 369 425 32,200 1,150 Climbing Boston Center
Sun 09:45:31 AM 42.8939 -72.7972 279° West 364 419 33,100 950 Climbing Boston Center
Sun 09:46:31 AM 42.9058 -72.9389 277° West 364 419 34,100 1,045 Climbing Boston Center
Sun 09:47:43 AM 42.9256 -73.1122 279° West 372 428 35,400 1,000 Climbing Boston Center
Sun 09:48:43 AM 42.9372 -73.2456 277° West 362 417 36,300 850 Climbing Boston Center
Sun 09:49:43 AM 42.9450 -73.3478 276° West 357 411 37,100 800 Climbing Boston Center
Sun 09:50:43 AM 42.9522 -73.4783 274° West 339 390 37,900 450 Climbing Boston Center
Sun 09:51:43 AM 42.9656 -73.6006 279° West 333 383 38,000 50 Climbing Boston Center
Sun 09:52:43 AM 42.9767 -73.7314 277° West 338 389 38,000  Level Boston Center
Sun 09:53:43 AM 42.9856 -73.8650 275° West 343 395 38,000  Level Boston Center
Sun 09:54:43 AM 42.9983 -74.0042 277° West 361 415 38,000  Level Boston Center
Sun 09:55:43 AM 43.0108 -74.1467 277° West 373 429 38,000  Level Boston Center
Sun 09:56:43 AM 43.0231 -74.2917 277° West 384 442 38,000  Level Boston Center
Sun 09:57:43 AM 43.0353 -74.4369 277° West 389 448 38,000  Level Boston Center
Sun 09:58:43 AM 43.0450 -74.5850 275° West 389 448 38,000  Level Boston Center
Sun 09:59:43 AM 43.0569 -74.7303 276° West 389 448 38,000  Level Boston Center
Sun 10:00:43 AM 43.0683 -74.8758 276° West 389 448 38,000  Level Boston Center
Sun 10:01:43 AM 43.0714 -75.0239 272° West 389 448 38,000  Level Boston Center
Sun 10:02:43 AM 43.0742 -75.1689 272° West 384 442 38,000  Level Boston Center
Sun 10:03:43 AM 43.0769 -75.3169 272° West 384 442 38,000  Level Boston Center
Sun 10:04:43 AM 43.0817 -75.4592 273° West 384 442 38,000  Level Boston Center
Sun 10:05:43 AM 43.0817 -75.6042 270° West 384 442 38,000  Level Boston Center
Sun 10:06:43 AM 43.0861 -75.7494 272° West 384 442 38,000  Level Boston Center
Sun 10:07:43 AM 43.0900 -75.8947 272° West 384 442 38,000  Level Boston Center
Sun 10:08:43 AM 43.0897 -76.0397 270° West 384 442 38,000  Level Boston Center
Sun 10:10:16 AM 43.0931 -76.2842 271° West 375 432 38,000  Level Cleveland Center
Sun 10:11:16 AM 43.0942 -76.4289 271° West 381 438 38,000  Level Cleveland Center
Sun 10:12:16 AM 43.0953 -76.5769 271° West 386 444 38,000  Level Cleveland Center
Sun 10:13:16 AM 43.0972 -76.6961 271° West 386 444 38,000  Level Cleveland Center
Sun 10:14:16 AM 43.0981 -76.8497 270° West 381 438 38,000  Level Cleveland Center
Sun 10:15:16 AM 43.0986 -76.9919 270° West 381 438 38,000  Level Cleveland Center
Sun 10:16:16 AM 43.0989 -77.1369 270° West 381 438 38,000  Level Cleveland Center
Sun 10:17:16 AM 43.0989 -77.2847 270° West 386 444 38,000  Level Cleveland Center
Sun 10:18:16 AM 43.1008 -77.4269 271° West 386 444 38,000  Level Cleveland Center
Sun 10:19:16 AM 43.0983 -77.5750 269° West 386 444 38,000  Level Cleveland Center
Sun 10:20:16 AM 43.1000 -77.7169 271° West 386 444 38,000  Level Cleveland Center
Sun 10:21:16 AM 43.0994 -77.8622 270° West 386 444 38,000  Level Cleveland Center
Sun 10:22:16 AM 43.0989 -78.0242 270° West 386 444 38,000  Level Cleveland Center
Sun 10:23:16 AM 43.0978 -78.1664 269° West 386 444 38,000  Level Cleveland Center
Sun 10:24:16 AM 43.0967 -78.3144 269° West 386 444 38,000  Level Cleveland Center
Sun 10:25:16 AM 43.0953 -78.4622 269° West 386 444 38,000  Level Cleveland Center
Sun 10:26:16 AM 43.0936 -78.6072 269° West 386 444 38,000  Level Cleveland Center
Sun 10:27:16 AM 43.0939 -78.7581 270° West 386 444 38,000  Level Cleveland Center
Sun 10:28:16 AM 43.0900 -78.9089 268° West 386 444 38,000  Level Cleveland Center
Sun 10:29:04 AM 43.0833 -79.0000 264° West 400 460 38,000  Level Toronto Center
Sun 10:30:04 AM 43.0833 -79.1500 270° West 400 460 38,000  Level Toronto Center
Sun 10:31:04 AM 43.0667 -79.3167 262° West 400 460 38,000  Level Toronto Center
Sun 10:32:04 AM 43.0667 -79.4667 270° West 410 472 38,000  Level Toronto Center
Sun 10:33:04 AM 43.0500 -79.6167 261° West 400 460 38,000  Level Toronto Center
Sun 10:34:04 AM 43.0333 -79.7667 261° West 410 472 38,000  Level Toronto Center
Sun 10:35:04 AM 43.0000 -79.9333 255° West 410 472 38,000  Level Toronto Center
Sun 10:36:04 AM 42.9833 -80.0667 260° West 410 472 38,000  Level Toronto Center
Sun 10:37:04 AM 42.9500 -80.2333 255° West 410 472 38,000  Level Toronto Center
Sun 10:38:04 AM 42.9333 -80.3667 260° West 410 472 38,000  Level Toronto Center
Sun 10:39:04 AM 42.9000 -80.5167 253° West 420 483 38,000  Level Toronto Center
Sun 10:40:04 AM 42.8833 -80.6833 262° West 420 483 38,000 250 Level Toronto Center
Sun 10:41:04 AM 42.8333 -80.8333 246° West 410 472 38,500 600 Climbing Toronto Center
Sun 10:42:04 AM 42.8167 -81.0000 262° West 400 460 39,200 700 Climbing Toronto Center
Sun 10:43:04 AM 42.7833 -81.1333 251° West 390 449 39,900 400 Climbing Toronto Center
Sun 10:44:04 AM 42.7667 -81.2667 260° West 390 449 40,000 50 Climbing Toronto Center
Sun 10:45:04 AM 42.7500 -81.4000 260° West 390 449 40,000  Level Toronto Center
Sun 10:46:04 AM 42.7167 -81.5667 255° West 400 460 40,000  Level Toronto Center
Sun 10:47:04 AM 42.7000 -81.7167 261° West 400 460 40,000  Level Toronto Center
Sun 10:48:04 AM 42.6667 -81.8500 251° West 400 460 40,000  Level Toronto Center
Sun 10:49:04 AM 42.6333 -81.9833 251° West 400 460 40,000  Level Toronto Center
Sun 10:50:04 AM 42.6000 -82.1500 255° West 410 472 40,000  Level Toronto Center
Sun 10:51:04 AM 42.5833 -82.3000 261° West 410 472 40,000  Level Toronto Center
Sun 10:52:03 AM 42.5667 -82.4333 260° West 410 472 40,000  Level Toronto Center
Sun 10:53:04 AM 42.5333 -82.6000 255° West 410 472 40,000  Level Toronto Center
Sun 10:54:04 AM 42.5000 -82.7500 253° West 410 472 40,000  Level Toronto Center
Sun 10:55:03 AM 42.4667 -82.8833 251° West 410 472 40,000  Level Toronto Center
Sun 10:56:04 AM 42.4500 -83.0500 262° West 410 472 40,000  Level Toronto Center
Sun 10:57:04 AM 42.4000 -83.2000 246° West 410 472 40,000  Level Toronto Center
Sun 10:58:04 AM 42.3833 -83.3333 260° West 420 483 40,000  Level Toronto Center
Sun 10:59:04 AM 42.3500 -83.4833 253° West 420 483 40,000  Level Toronto Center
Sun 11:00:04 AM 42.3333 -83.6500 262° West 420 483 40,000  Level Toronto Center
Sun 11:01:04 AM 42.2833 -83.8000 246° West 420 483 40,000  Level Toronto Center
Sun 11:02:04 AM 42.2667 -83.9500 262° West 420 483 40,000  Level Toronto Center
Sun 11:03:04 AM 42.2333 -84.1167 255° West 420 483 40,000  Level Toronto Center
Sun 11:04:04 AM 42.2000 -84.2500 251° West 420 483 40,000  Level Toronto Center
Sun 11:05:26 AM 42.1722 -84.4603 260° West 424 488 40,000  Level Chicago Center
Sun 11:06:28 AM 42.1408 -84.6114 254° West 421 484 40,000  Level Chicago Center
Sun 11:07:30 AM 42.1078 -84.7661 254° West 428 493 40,000  Level Chicago Center
Sun 11:08:32 AM 42.0864 -84.9222 260° West 427 491 40,000  Level Chicago Center
Sun 11:09:33 AM 42.0761 -85.0828 265° West 430 495 40,000  Level Chicago Center
Sun 11:10:35 AM 42.0653 -85.2744 266° West 429 494 40,000  Level Chicago Center
Sun 11:11:37 AM 42.0556 -85.4350 265° West 429 494 40,000  Level Chicago Center
Sun 11:12:39 AM 42.0461 -85.5969 266° West 433 498 40,000  Level Chicago Center
Sun 11:13:40 AM 42.0361 -85.7589 265° West 435 501 40,000  Level Chicago Center
Sun 11:14:42 AM 42.0253 -85.9203 265° West 434 499 40,000  Level Chicago Center
Sun 11:15:44 AM 42.0147 -86.0956 265° West 438 504 40,000  Level Chicago Center
Sun 11:16:46 AM 42.0042 -86.2583 265° West 440 506 40,000  Level Chicago Center
Sun 11:17:48 AM 41.9925 -86.4222 265° West 445 512 40,000  Level Chicago Center
Sun 11:18:51 AM 41.9811 -86.5869 265° West 447 514 40,000  Level Chicago Center
Sun 11:19:52 AM 41.9700 -86.7586 265° West 453 521 40,000  Level Chicago Center
Sun 11:20:54 AM 41.9547 -86.9586 264° West 453 521 40,000  Level Chicago Center
Sun 11:21:56 AM 41.9428 -87.1264 265° West 456 525 40,000  Level Chicago Center
Sun 11:22:58 AM 41.9300 -87.2928 264° West 455 524 40,000  Level Chicago Center
Sun 11:24:00 AM 41.9161 -87.4592 264° West 453 521 40,000  Level Chicago Center
Sun 11:25:02 AM 41.9031 -87.6261 264° West 456 525 40,000  Level Chicago Center
Sun 11:26:04 AM 41.8878 -87.8286 264° West 460 529 40,000  Level Chicago Center
Sun 11:27:06 AM 41.8750 -87.9928 264° West 453 521 40,000  Level Chicago Center
Sun 11:28:08 AM 41.8603 -88.1603 263° West 456 525 40,000  Level Chicago Center
Sun 11:29:10 AM 41.8464 -88.3269 264° West 457 526 40,000  Level Chicago Center
Sun 11:30:12 AM 41.8286 -88.5253 263° West 454 522 40,000  Level Chicago Center
Sun 11:31:14 AM 41.8142 -88.6903 263° West 451 519 40,000  Level Chicago Center
Sun 11:32:16 AM 41.7997 -88.8539 263° West 447 514 40,000  Level Chicago Center
Sun 11:33:18 AM 41.7847 -89.0194 263° West 452 520 40,000  Level Chicago Center
Sun 11:34:20 AM 41.7694 -89.1850 263° West 452 520 40,000  Level Chicago Center
Sun 11:35:22 AM 41.7517 -89.3847 263° West 453 521 40,000  Level Chicago Center
Sun 11:36:24 AM 41.7356 -89.5514 263° West 454 522 40,000  Level Chicago Center
Sun 11:37:26 AM 41.7214 -89.7083 263° West 449 517 40,000  Level Chicago Center
Sun 11:38:28 AM 41.7056 -89.8733 263° West 450 518 40,000  Level Chicago Center
Sun 11:39:30 AM 41.6861 -90.0706 263° West 449 517 40,000  Level Chicago Center
Sun 11:40:32 AM 41.6700 -90.2347 263° West 448 516 40,000  Level Chicago Center
Sun 11:41:34 AM 41.6517 -90.4036 262° West 459 528 40,000  Level Chicago Center
Sun 11:42:36 AM 41.6339 -90.5681 262° West 451 519 40,000  Level Chicago Center
Sun 11:43:38 AM 41.6142 -90.7528 262° West 458 527 40,000  Level Chicago Center
Sun 11:44:40 AM 41.5967 -90.9192 262° West 457 526 40,000  Level Chicago Center
Sun 11:45:42 AM 41.5789 -91.0869 262° West 459 528 40,000  Level Chicago Center
Sun 11:46:44 AM 41.5600 -91.2536 261° West 457 526 40,000  Level Chicago Center
Sun 11:47:46 AM 41.5408 -91.4219 261° West 460 529 40,000  Level Chicago Center
Sun 11:48:48 AM 41.5189 -91.6214 262° West 456 525 40,000  Level Chicago Center
Sun 11:49:50 AM 41.5033 -91.7889 263° West 457 526 40,000  Level Chicago Center
Sun 11:50:52 AM 41.4878 -91.9547 263° West 455 524 40,000  Level Chicago Center
Sun 11:51:54 AM 41.4717 -92.1203 263° West 453 521 40,000  Level Chicago Center
Sun 11:52:56 AM 41.4544 -92.2864 262° West 454 522 40,000  Level Chicago Center
Sun 11:53:58 AM 41.4356 -92.4853 263° West 453 521 40,000  Level Chicago Center
Sun 11:55:01 AM 41.4178 -92.6497 262° West 453 521 40,000  Level Chicago Center
Sun 11:56:02 AM 41.4006 -92.8142 262° West 453 521 40,000  Level Chicago Center
Sun 11:57:04 AM 41.3831 -92.9806 262° West 458 527 40,000  Level Chicago Center
Sun 11:58:17 AM 41.3636 -93.1783 263° West 456 525 40,000  Level Minneapolis Center
Sun 11:59:19 AM 41.3417 -93.3783 262° West 459 528 40,000  Level Minneapolis Center
Sun 12:00:21 PM 41.3236 -93.5422 262° West 456 525 40,000  Level Minneapolis Center
Sun 12:01:23 PM 41.3069 -93.7056 262° West 452 520 40,000  Level Minneapolis Center
Sun 12:02:25 PM 41.2894 -93.8683 262° West 452 520 40,000  Level Minneapolis Center
Sun 12:03:27 PM 41.2692 -94.0353 261° West 458 527 40,000  Level Minneapolis Center
Sun 12:04:29 PM 41.2481 -94.2203 261° West 455 524 40,000  Level Minneapolis Center
Sun 12:05:31 PM 41.2289 -94.3853 261° West 454 522 40,000  Level Minneapolis Center
Sun 12:06:33 PM 41.2094 -94.5514 261° West 454 522 40,000  Level Minneapolis Center
Sun 12:07:35 PM 41.1892 -94.7167 261° West 453 521 40,000  Level Minneapolis Center
Sun 12:08:37 PM 41.1656 -94.9136 261° West 450 518 40,000  Level Minneapolis Center
Sun 12:09:39 PM 41.1444 -95.0772 260° West 449 517 40,000  Level Minneapolis Center
Sun 12:10:41 PM 41.1275 -95.2089 260° West 450 518 40,000  Level Minneapolis Center
Sun 12:11:43 PM 41.1019 -95.4069 260° West 451 519 40,000  Level Minneapolis Center
Sun 12:12:45 PM 41.0803 -95.5747 260° West 455 524 40,000  Level Minneapolis Center
Sun 12:13:47 PM 41.0578 -95.7386 260° West 452 520 40,000  Level Minneapolis Center
Sun 12:14:49 PM 41.0361 -95.9014 260° West 447 514 40,000  Level Minneapolis Center
Sun 12:16:03 PM 41.0117 -96.0981 261° West 446 513 40,000  Level Minneapolis Center
Sun 12:17:06 PM 40.9853 -96.2942 260° West 448 516 40,000  Level Minneapolis Center
Sun 12:18:08 PM 40.9631 -96.4586 260° West 450 518 40,000  Level Minneapolis Center
Sun 12:19:10 PM 40.9406 -96.6203 260° West 448 516 40,000  Level Minneapolis Center
Sun 12:20:12 PM 40.9192 -96.7797 260° West 443 510 40,000  Level Minneapolis Center
Sun 12:21:14 PM 40.9044 -96.9392 263° West 439 505 40,000  Level Minneapolis Center
Sun 12:22:16 PM 40.8894 -97.1000 263° West 441 507 40,000  Level Minneapolis Center
Sun 12:23:18 PM 40.8736 -97.2622 263° West 444 511 40,000  Level Minneapolis Center
Sun 12:24:20 PM 40.8539 -97.4600 263° West 437 503 40,000  Level Minneapolis Center
Sun 12:25:23 PM 40.8381 -97.6194 263° West 438 504 40,000  Level Minneapolis Center
Sun 12:26:25 PM 40.8217 -97.7781 262° West 436 502 40,000  Level Minneapolis Center
Sun 12:27:27 PM 40.8053 -97.9333 262° West 429 494 40,000  Level Minneapolis Center
Sun 12:28:28 PM 40.7931 -98.0572 263° West 426 490 40,000  Level Minneapolis Center
Sun 12:29:31 PM 40.7722 -98.2400 261° West 420 483 40,000  Level Minneapolis Center
Sun 12:30:33 PM 40.7567 -98.3925 262° West 419 482 40,000  Level Minneapolis Center
Sun 12:32:37 PM 40.7194 -98.7328 262° West 422 486 40,000  Level Minneapolis Center
Sun 12:33:39 PM 40.7011 -98.8883 261° West 425 489 40,000  Level Minneapolis Center
Sun 12:34:41 PM 40.6872 -99.0144 262° West 428 493 40,000  Level Minneapolis Center
Sun 12:35:43 PM 40.6653 -99.2033 261° West 432 497 40,000  Level Minneapolis Center
Sun 12:37:09 PM 40.6400 -99.4250 262° West 435 501 40,000  Level Denver Center
Sun 12:37:47 PM 40.6292 -99.5211 262° West 437 503 40,000  Level Minneapolis Center
Sun 12:38:49 PM 40.6108 -99.6800 261° West 438 504 40,000  Level Minneapolis Center
Sun 12:39:51 PM 40.5872 -99.8700 261° West 438 504 40,000  Level Minneapolis Center
Sun 12:40:53 PM 40.5689 -100.0228 261° West 429 494 40,000  Level Minneapolis Center
Sun 12:41:55 PM 40.5506 -100.1739 261° West 421 484 40,000  Level Minneapolis Center
Sun 12:42:58 PM 40.5328 -100.3244 261° West 419 482 40,000  Level Minneapolis Center
Sun 12:44:00 PM 40.5131 -100.4736 260° West 417 480 40,000  Level Minneapolis Center
Sun 12:45:26 PM 40.4828 -100.6917 260° West 420 483 40,000  Level Denver Center
Sun 12:46:28 PM 40.4606 -100.8636 260° West 424 488 40,000  Level Denver Center
Sun 12:47:30 PM 40.4364 -101.0114 258° West 430 495 40,000  Level Denver Center
Sun 12:48:32 PM 40.4086 -101.1578 256° West 431 496 40,000  Level Denver Center
Sun 12:49:34 PM 40.3758 -101.3283 256° West 430 495 40,000  Level Denver Center
Sun 12:50:36 PM 40.3481 -101.4758 256° West 434 499 40,000  Level Denver Center
Sun 12:51:38 PM 40.3153 -101.6439 256° West 428 493 40,000  Level Denver Center
Sun 12:52:40 PM 40.2867 -101.7883 255° West 427 491 40,000  Level Denver Center
Sun 12:53:42 PM 40.2531 -101.9564 255° West 427 491 40,000  Level Denver Center
Sun 12:55:00 PM 40.2153 -102.1440 255° West  Level FlightAware Approximate
Sun 12:55:46 PM 40.1894 -102.2711 255° West 430 495 40,000  Level Denver Center
Sun 12:56:48 PM 40.1611 -102.4161 256° West 430 495 40,000  Level Denver Center
Sun 12:57:50 PM 40.1267 -102.5831 255° West 426 490 40,000  Level Denver Center
Sun 12:58:52 PM 40.0969 -102.7281 255° West 430 495 40,000  Level Denver Center
Sun 12:59:54 PM 40.0611 -102.8964 255° West 432 497 40,000  Level Denver Center
Sun 01:00:56 PM 40.0314 -103.0408 255° West 432 497 40,000  Level Denver Center
Sun 01:01:59 PM 39.9969 -103.2114 255° West 435 501 40,000  Level Denver Center
Sun 01:03:01 PM 39.9661 -103.3558 254° West 434 499 40,000  Level Denver Center
Sun 01:04:03 PM 39.9347 -103.4989 254° West 431 496 40,000  Level Denver Center
Sun 01:05:05 PM 39.9025 -103.6564 255° West 434 499 40,000 -194 Level Denver Center
Sun 01:06:07 PM 39.8647 -103.8278 254° West 450 518 39,600 -677 Descending Denver Center
Sun 01:07:09 PM 39.8286 -103.9953 254° West 448 516 38,600 -968 Descending Denver Center
Sun 01:08:11 PM 39.7939 -104.1506 254° West 448 516 37,600 -1,065 Descending Denver Center
Sun 01:09:13 PM 39.7567 -104.3189 254° West 450 518 36,400 -1,645 Descending Denver Center
Sun 01:10:15 PM 39.7206 -104.4800 254° West 461 531 34,200 -1,161 Descending Denver Center
Sun 01:11:17 PM 39.6867 -104.6406 255° West 458 527 34,000 -97 Descending Denver Center
Sun 01:12:19 PM 39.6694 -104.8178 263° West 458 527 34,000  Level Denver Center
Sun 01:13:21 PM 39.6531 -104.9825 263° West 460 529 34,000  Level Denver Center
Sun 01:14:23 PM 39.6364 -105.1458 263° West 457 526 34,000 -194 Level Denver Center
Sun 01:15:25 PM 39.6167 -105.3219 262° West 458 527 33,600 -960 Descending Denver Center
Sun 01:16:28 PM 39.5989 -105.4886 262° West 469 540 32,000 -1,584 Descending Denver Center
Sun 01:17:30 PM 39.5792 -105.6667 262° West 466 536 30,300 -1,452 Descending Denver Center
Sun 01:18:32 PM 39.5328 -105.8214 249° West 460 529 29,000 -871 Descending Denver Center
Sun 01:19:34 PM 39.4867 -105.9722 248° West 453 521 28,500 -1,210 Descending Denver Center
Sun 01:20:36 PM 39.4742 -106.1442 265° West 472 543 26,500 -1,984 Descending Denver Center
Sun 01:21:38 PM 39.4664 -106.3056 266° West 453 521 24,400 -2,032 Descending Denver Center
Sun 01:22:40 PM 39.4603 -106.4647 267° West 444 511 22,300 -2,565 Descending Denver Center
Sun 01:23:42 PM 39.4522 -106.6300 266° West 418 481 19,100 -3,097 Descending Denver Center
Sun 01:24:44 PM 39.4450 -106.7844 267° West 389 448 15,900 -2,468 Descending Denver Center
Sun 01:25:46 PM 39.4378 -106.8978 265° West 343 395 14,000 -1,597 Descending Denver Center
Sun 01:26:48 PM 39.3936 -106.9769 234° Southwest 287 330 12,600 -1,452 Descending Denver Center
Sun 01:27:50 PM 39.3403 -106.9353 149° Southeast 245 282 11,000 -1,645 Descending Denver Center
Sun 01:28:52 PM 39.2961 -106.9039 151° Southeast 202 232 9,200 -1,210 Descending Denver Center
Sun 01:29:54 PM 39.2467 -106.8800 159° South 184 212 8,500 -677 Descending Denver Center
Sun 01:31:00 PM 39.2167 -106.8667 180° South  Level FlightAware Approximate

Login

Don't have an account? Register now (free) for customized features, flight alerts, and more!